Etusivu
METAR-TAF:

METAR-TAF

Lentoasemat :

Havanna, Kuuba

Leveyspiiri: 22-59N, Pituuspiiri: 082-24W, korkeus merenpinnasta: 59 m

Tämänhetkinen sää

Tämä raportti tehtiin 34 minuuttia sitten, kello 11.55 UTC
Tuuli 6 kn idästä
Lämpötila 20°C
Kosteus 100%
Ilmanpaine 1018 hPa
Näkyvyys: 9000 m
selkeää

METAR: MUHA 181155Z 09006KT 9000 SKC 20/20 Q1018

Aika: 07:29 (12:29 UTC)

Sääennuste

Tämä raportti tehtiin 1 tunti ja 29 minuuttia sitten, kello 11.00 UTC
Ennuste voimassa 18. päivästä klo 12 UTC - 19. päivään klo 12 UTC
Tuuli 5 kn idästä
Näkyvyys: 9000 m
Muutamia pilviä 3000 ft:n korkeudessa
Tulossa
18. päivästä klo 13 UTC - 18. päivään klo 14 UTC
Tuuli 12 kn idästä/kaakosta
Tulossa
19. päivästä klo 01 UTC - 19. päivään klo 03 UTC
Tuuli 3 kn idästä

TAF: MUHA 181100Z 1812/1912 08005KT 9000 FEW030 BECMG 1813/1814 12012KT BECMG 1901/1903 09003KT

Säähavainnot ja -ennusteet yli 4000 lentoasemalta (METAR- ja TAF-raportit).

Käytössä olevat sääasemat on merkitty karttaan keltaisilla ja punaisilla pisteillä.

Aseta hiiri pisteen päälle nähdäksesi sääaseman nimen.

Klikkaa sitten nähdäksesi säähavainnot ja -ennusteet.

Kartan vaihtaminen: klikkaa mustalla rastilla varustettuja vihreitä pisteitä, niin voit zoomata sisään; viivalla varustettua vihreää pistettä, niin voit zoomata ulos tai vihreitä nuolia, niin pääset viereisille kartoille.


METAR-TAF: